Time;durP1;ratioP1;P1;durP2;ratioP2;P2;SDS_P1;SDS_P2;PMS_P1;PMS_P2;Temp;Humidity;BMP_temperature;BMP_pressure;BME280_temperature;BME280_humidity;BME280_pressure;Samples;Min_cycle;Max_cycle;Signal;HPM_P1;HPM_P2
2022/07/12 00:01:33;;;;;;;2.57;1.33;;;;;;;9.94;78.86;95894.59;1767393;81;20977;-65
2022/07/12 00:04:00;;;;;;;2.80;1.50;;;;;;;9.90;78.34;95892.45;1767023;81;21059;-65
2022/07/12 00:06:26;;;;;;;1.80;1.40;;;;;;;9.75;78.79;95894.80;1767396;81;21052;-65
2022/07/12 00:08:53;;;;;;;2.30;1.30;;;;;;;9.67;78.74;95897.07;1767066;81;21018;-64
2022/07/12 00:11:20;;;;;;;1.73;1.37;;;;;;;9.61;78.71;95893.20;1767077;81;21032;-65
2022/07/12 00:13:47;;;;;;;2.50;1.40;;;;;;;9.46;78.59;95901.66;1767047;81;21024;-65
2022/07/12 00:16:13;;;;;;;2.07;1.33;;;;;;;9.36;78.86;95903.95;1767008;81;21550;-65
2022/07/12 00:18:41;;;;;;;1.70;1.30;;;;;;;9.28;79.61;95902.70;1767157;81;21045;-65
2022/07/12 00:21:08;;;;;;;2.77;1.30;;;;;;;9.30;79.06;95904.89;1767118;81;21500;-65
2022/07/12 00:23:35;;;;;;;2.37;1.40;;;;;;;9.25;79.00;95908.01;1766957;81;21520;-65
2022/07/12 00:26:04;;;;;;;1.43;1.30;;;;;;;9.17;78.99;95912.89;1766707;81;21021;-65
2022/07/12 00:28:31;;;;;;;3.40;1.30;;;;;;;9.18;78.95;95916.84;1767132;81;20996;-65
2022/07/12 00:30:58;;;;;;;2.73;1.13;;;;;;;9.19;79.22;95915.07;1767030;81;20973;-65
2022/07/12 00:33:26;;;;;;;2.77;1.60;;;;;;;9.16;78.86;95916.42;1766815;81;21148;-65
2022/07/12 00:35:53;;;;;;;2.77;1.70;;;;;;;9.12;78.87;95916.86;1767172;81;21001;-65
2022/07/12 00:38:20;;;;;;;5.60;2.10;;;;;;;9.08;78.52;95917.80;1767213;81;21032;-65
2022/07/12 00:40:46;;;;;;;2.97;1.57;;;;;;;9.05;79.47;95918.69;1767055;81;20969;-65
2022/07/12 00:43:13;;;;;;;1.30;1.20;;;;;;;9.10;79.86;95918.66;1767190;81;20969;-65
2022/07/12 00:45:40;;;;;;;1.97;1.40;;;;;;;9.13;79.76;95923.89;1767173;81;21048;-65
2022/07/12 00:48:07;;;;;;;1.93;1.30;;;;;;;9.10;79.77;95925.24;1767407;81;20973;-65
2022/07/12 00:50:34;;;;;;;1.73;1.30;;;;;;;9.08;79.25;95926.56;1767169;81;20965;-65
2022/07/12 00:53:02;;;;;;;1.55;1.10;;;;;;;9.09;79.03;95925.66;1767073;81;21001;-65
2022/07/12 00:55:29;;;;;;;2.53;1.30;;;;;;;9.02;79.07;95930.56;1766712;81;21024;-65
2022/07/12 00:57:55;;;;;;;2.13;1.10;;;;;;;8.90;79.27;95931.09;1766996;81;20988;-65
2022/07/12 01:00:26;;;;;;;1.87;1.20;;;;;;;8.86;78.90;95929.77;1765991;81;20978;-65
2022/07/12 01:02:56;;;;;;;3.97;1.13;;;;;;;8.88;79.53;95937.67;1763970;81;20986;-65
2022/07/12 01:05:23;;;;;;;1.77;1.10;;;;;;;8.95;78.93;95932.80;1764021;81;21061;-65
2022/07/12 01:07:51;;;;;;;2.10;1.10;;;;;;;8.93;78.43;95929.30;1764173;81;21080;-65
2022/07/12 01:10:18;;;;;;;2.37;1.27;;;;;;;8.86;79.30;95932.41;1763792;81;21013;-65
2022/07/12 01:12:45;;;;;;;1.87;1.10;;;;;;;8.80;79.55;95942.98;1763725;81;21053;-65
2022/07/12 01:15:13;;;;;;;1.60;1.00;;;;;;;8.80;79.74;95932.91;1764139;81;21068;-65
2022/07/12 01:17:40;;;;;;;1.37;1.27;;;;;;;8.83;80.19;95939.02;1764078;81;21005;-65
2022/07/12 01:20:09;;;;;;;1.60;1.50;;;;;;;8.79;80.17;95938.59;1764092;81;21040;-65
2022/07/12 01:22:40;;;;;;;2.23;1.20;;;;;;;8.79;79.79;95931.14;1764271;81;21001;-65
2022/07/12 01:25:08;;;;;;;1.80;1.30;;;;;;;8.76;79.53;95933.35;1764123;81;21008;-65
2022/07/12 01:27:38;;;;;;;2.87;1.47;;;;;;;8.65;79.61;95935.19;1764100;81;20985;-65
2022/07/12 01:30:06;;;;;;;2.90;1.37;;;;;;;8.56;81.08;95932.59;1764311;81;21040;-65
2022/07/12 01:32:33;;;;;;;2.73;1.50;;;;;;;8.55;80.96;95933.48;1764064;81;21056;-65
2022/07/12 01:35:07;;;;;;;1.97;1.20;;;;;;;8.56;80.13;95932.59;1764131;81;21044;-65
2022/07/12 01:37:36;;;;;;;3.03;1.60;;;;;;;8.48;80.76;95937.03;1764079;81;21017;-65
2022/07/12 01:40:07;;;;;;;3.63;1.30;;;;;;;8.46;80.05;95935.70;1763973;81;21530;-65
2022/07/12 01:42:34;;;;;;;4.93;1.60;;;;;;;8.42;79.74;95934.00;1763917;81;21033;-65
2022/07/12 01:45:02;;;;;;;3.73;1.60;;;;;;;8.38;79.55;95927.83;1764162;81;21009;-65
2022/07/12 01:47:31;;;;;;;2.77;1.77;;;;;;;8.30;79.29;95936.64;1764070;81;21048;-65
2022/07/12 01:49:59;;;;;;;2.67;1.40;;;;;;;8.18;80.17;95937.11;1764398;81;21001;-65
2022/07/12 01:52:26;;;;;;;1.97;1.53;;;;;;;8.20;80.51;95935.80;1764166;81;21013;-65
2022/07/12 01:54:54;;;;;;;3.00;1.90;;;;;;;8.15;80.84;95941.06;1763862;81;21052;-65
2022/07/12 01:57:22;;;;;;;3.27;1.70;;;;;;;8.12;79.84;95931.89;1764196;81;21531;-65
2022/07/12 01:59:49;;;;;;;3.03;1.70;;;;;;;8.11;81.44;95935.38;1764228;81;20977;-65
2022/07/12 02:02:15;;;;;;;2.83;1.90;;;;;;;8.12;80.76;95934.52;1767246;81;21004;-65
2022/07/12 02:04:43;;;;;;;2.37;1.43;;;;;;;8.17;81.67;95940.63;1767305;81;21427;-65
2022/07/12 02:07:10;;;;;;;3.90;2.00;;;;;;;8.23;81.47;95935.34;1764919;81;21056;-65
2022/07/12 02:09:36;;;;;;;4.17;1.70;;;;;;;8.23;81.14;95934.47;1767046;81;21017;-65
2022/07/12 02:12:04;;;;;;;3.97;2.10;;;;;;;8.23;81.24;95939.28;1767311;81;20961;-65
2022/07/12 02:14:31;;;;;;;3.00;2.00;;;;;;;8.22;80.96;95936.67;1767276;81;21021;-65
2022/07/12 02:16:58;;;;;;;3.80;2.30;;;;;;;8.31;80.87;95931.80;1766790;81;21012;-65
2022/07/12 02:19:24;;;;;;;4.93;2.10;;;;;;;8.35;80.62;95938.81;1767317;81;21012;-65
2022/07/12 02:21:51;;;;;;;2.70;1.60;;;;;;;8.32;80.91;95937.06;1767243;81;21554;-65
2022/07/12 02:24:18;;;;;;;2.83;1.60;;;;;;;8.31;80.04;95937.93;1767272;81;21024;-65
2022/07/12 02:26:45;;;;;;;4.70;1.60;;;;;;;8.22;79.68;95930.10;1767364;81;20989;-65
2022/07/12 02:29:12;;;;;;;2.83;1.50;;;;;;;8.16;80.26;95935.37;1766771;81;21029;-65
2022/07/12 02:31:38;;;;;;;2.17;1.43;;;;;;;8.19;80.19;95934.93;1767200;81;21020;-65
2022/07/12 02:34:05;;;;;;;2.83;1.60;;;;;;;8.26;79.92;95927.88;1766938;81;21005;-66
2022/07/12 02:36:33;;;;;;;2.23;1.73;;;;;;;8.22;79.18;95931.42;1767016;81;20982;-65
2022/07/12 02:39:04;;;;;;;2.47;1.80;;;;;;;8.19;79.73;95933.62;1767264;81;21463;-65
2022/07/12 02:41:32;;;;;;;2.17;1.80;;;;;;;8.14;79.52;95941.06;1767293;81;21004;-65
2022/07/12 02:43:59;;;;;;;3.37;1.70;;;;;;;8.08;79.65;95939.34;1767152;81;21523;-65
2022/07/12 02:46:26;;;;;;;1.50;1.33;;;;;;;8.02;79.77;95938.92;1767182;81;21451;-65
2022/07/12 02:48:53;;;;;;;2.77;1.50;;;;;;;7.76;79.56;95945.57;1767014;81;21005;-65
2022/07/12 02:51:20;;;;;;;2.00;1.50;;;;;;;7.59;80.42;95943.41;1767183;81;20973;-65
2022/07/12 02:53:47;;;;;;;2.33;1.70;;;;;;;7.55;80.34;95939.89;1767252;81;21048;-65
2022/07/12 02:56:13;;;;;;;3.00;1.73;;;;;;;7.51;81.90;95942.11;1766645;81;21027;-65
2022/07/12 02:58:40;;;;;;;3.07;2.17;;;;;;;7.54;82.31;95946.04;1767032;81;21036;-65
2022/07/12 03:01:07;;;;;;;3.30;2.20;;;;;;;7.61;81.43;95947.33;1767169;81;21001;-65
2022/07/12 03:03:34;;;;;;;3.17;1.90;;;;;;;7.65;81.20;95951.27;1767240;81;20986;-65
2022/07/12 03:06:01;;;;;;;3.43;1.93;;;;;;;7.64;80.84;95949.53;1767274;81;21020;-65
2022/07/12 03:08:27;;;;;;;3.90;2.10;;;;;;;7.69;80.76;95949.08;1767248;81;21009;-65
2022/07/12 03:10:54;;;;;;;4.63;1.70;;;;;;;7.70;80.19;95952.58;1767155;81;21408;-65
2022/07/12 03:13:21;;;;;;;2.50;1.63;;;;;;;7.71;79.73;95955.22;1766782;81;21044;-65
2022/07/12 03:15:49;;;;;;;3.03;1.83;;;;;;;7.72;79.90;95951.70;1767185;81;21015;-65
2022/07/12 03:18:17;;;;;;;4.43;1.40;;;;;;;7.76;80.00;95955.18;1766915;81;21492;-65
2022/07/12 03:20:44;;;;;;;2.03;1.20;;;;;;;7.76;80.62;95952.55;1767181;81;20965;-65
2022/07/12 03:23:11;;;;;;;1.73;1.30;;;;;;;7.75;81.07;95958.25;1766977;81;21024;-65
2022/07/12 03:25:38;;;;;;;6.33;1.33;;;;;;;7.80;80.70;95954.31;1766923;81;21012;-65
2022/07/12 03:28:04;;;;;;;2.03;1.40;;;;;;;7.72;79.81;95965.27;1767216;81;20993;-65
2022/07/12 03:30:31;;;;;;;3.27;1.40;;;;;;;7.67;79.85;95956.09;1767240;81;20965;-65
2022/07/12 03:32:58;;;;;;;1.50;1.40;;;;;;;7.68;80.26;95960.89;1766885;81;21064;-65
2022/07/12 03:35:25;;;;;;;4.70;1.67;;;;;;;7.77;80.51;95956.95;1767061;81;21009;-65
2022/07/12 03:37:53;;;;;;;6.20;2.37;;;;;;;7.77;80.52;95949.94;1767482;81;20973;-65
2022/07/12 03:40:21;;;;;;;12.23;9.23;;;;;;;7.84;81.11;95954.75;1766673;81;21590;-64
2022/07/12 03:42:49;;;;;;;12.07;8.40;;;;;;;8.00;80.77;95949.00;1767290;81;20985;-65
2022/07/12 03:45:16;;;;;;;8.77;6.87;;;;;;;8.12;80.61;95946.79;1766870;81;21534;-65
2022/07/12 03:47:43;;;;;;;5.30;4.80;;;;;;;8.21;81.01;95945.42;1767259;81;21009;-65
2022/07/12 03:50:12;;;;;;;5.50;5.00;;;;;;;8.31;81.22;95951.08;1767301;81;20985;-65
2022/07/12 03:52:41;;;;;;;6.90;5.70;;;;;;;8.50;80.87;95943.16;1767174;81;21031;-65
2022/07/12 03:55:10;;;;;;;6.93;5.30;;;;;;;8.68;80.59;95952.26;1767102;81;21080;-65
2022/07/12 03:57:38;;;;;;;4.60;3.10;;;;;;;8.76;80.12;95949.58;1767141;81;21001;-65
2022/07/12 04:00:12;;;;;;;2.70;2.07;;;;;;;8.87;79.89;95951.28;1767013;81;21045;-65
2022/07/12 04:02:37;;;;;;;3.00;1.80;;;;;;;8.97;79.52;95950.78;1766130;81;20985;-65
2022/07/12 04:05:06;;;;;;;1.90;1.70;;;;;;;9.03;79.42;95957.31;1767070;81;21021;-65
2022/07/12 04:07:33;;;;;;;2.13;1.93;;;;;;;9.08;79.93;95954.20;1767154;81;21009;-65
2022/07/12 04:09:59;;;;;;;2.87;2.07;;;;;;;9.17;79.41;95950.64;1767391;81;20969;-65
2022/07/12 04:12:26;;;;;;;3.60;2.20;;;;;;;9.22;79.21;95951.48;1767054;81;21009;-65
2022/07/12 04:14:53;;;;;;;3.20;2.40;;;;;;;9.28;79.07;95958.45;1766640;81;20989;-65
2022/07/12 04:17:20;;;;;;;2.57;2.00;;;;;;;9.36;78.99;95961.02;1766825;81;21100;-65
2022/07/12 04:19:47;;;;;;;3.20;2.20;;;;;;;9.39;78.82;95964.49;1766923;81;21092;-65
2022/07/12 04:22:13;;;;;;;4.47;3.03;;;;;;;9.42;79.42;95957.01;1767110;81;21043;-65
2022/07/12 04:24:41;;;;;;;3.60;2.40;;;;;;;9.48;79.58;95959.61;1767259;81;21800;-65
2022/07/12 04:27:08;;;;;;;3.53;2.43;;;;;;;9.56;79.30;95962.17;1767046;81;21044;-65
2022/07/12 04:29:35;;;;;;;2.83;2.10;;;;;;;9.65;79.45;95968.66;1767062;81;21507;-64
2022/07/12 04:32:01;;;;;;;4.67;2.00;;;;;;;9.73;79.96;95968.17;1767157;81;21005;-65
2022/07/12 04:34:28;;;;;;;3.43;2.00;;;;;;;9.83;79.69;95963.24;1767223;81;21021;-65
2022/07/12 04:36:55;;;;;;;3.30;1.90;;;;;;;9.87;79.47;95971.53;1767015;81;21016;-65
2022/07/12 04:39:22;;;;;;;4.60;2.27;;;;;;;9.95;79.92;95972.34;1767379;81;21040;-65
2022/07/12 04:41:49;;;;;;;2.80;2.20;;;;;;;10.07;80.04;95964.73;1766964;81;21020;-65
2022/07/12 04:44:15;;;;;;;3.30;1.90;;;;;;;10.16;79.79;95968.60;1767290;81;21044;-65
2022/07/12 04:46:42;;;;;;;3.93;2.07;;;;;;;10.30;80.04;95960.55;1767382;81;21059;-65
2022/07/12 04:49:09;;;;;;;4.10;1.70;;;;;;;10.45;79.43;95959.50;1767260;81;21001;-65
2022/07/12 04:51:36;;;;;;;8.03;2.10;;;;;;;10.58;79.45;95961.12;1766744;81;20989;-65
2022/07/12 04:54:03;;;;;;;4.50;2.00;;;;;;;10.70;79.13;95962.70;1767155;81;21495;-65
2022/07/12 04:56:30;;;;;;;2.67;1.67;;;;;;;10.90;79.37;95962.89;1766765;81;21471;-66
2022/07/12 04:58:56;;;;;;;2.07;1.63;;;;;;;11.08;79.02;95962.61;1766812;81;21088;-65
2022/07/12 05:01:23;;;;;;;2.55;2.00;;;;;;;11.27;78.50;95963.23;1766543;81;21076;-65
2022/07/12 05:03:49;;;;;;;3.95;1.70;;;;;;;11.41;77.79;95961.22;1766710;81;20989;-65
2022/07/12 05:06:17;;;;;;;7.25;2.20;;;;;;;11.54;77.79;95964.56;1766928;81;21448;-65
2022/07/12 05:08:43;;;;;;;6.62;1.92;;;;;;;11.65;77.07;95960.41;1767135;81;21506;-65
2022/07/12 05:11:10;;;;;;;6.90;2.42;;;;;;;11.77;76.84;95969.45;1766957;81;21478;-65
2022/07/12 05:13:37;;;;;;;3.72;1.82;;;;;;;11.90;77.26;95965.73;1766789;81;21574;-65
2022/07/12 05:16:07;;;;;;;3.62;1.67;;;;;;;12.10;76.70;95960.08;1767155;81;21001;-65
2022/07/12 05:18:35;;;;;;;3.37;1.62;;;;;;;12.26;76.57;95959.78;1767082;81;21004;-65
2022/07/12 05:21:03;;;;;;;2.47;1.65;;;;;;;12.42;75.69;95960.34;1767111;81;21025;-65
2022/07/12 05:23:30;;;;;;;3.22;1.92;;;;;;;12.53;75.45;95957.91;1767085;81;20981;-65
2022/07/12 05:25:57;;;;;;;4.17;1.40;;;;;;;12.61;74.97;95961.72;1766969;81;20981;-65
2022/07/12 05:28:23;;;;;;;7.83;2.22;;;;;;;12.70;74.22;95958.89;1767186;81;21447;-65
2022/07/12 05:30:50;;;;;;;2.37;1.40;;;;;;;12.80;73.90;95962.65;1767105;81;21040;-65
2022/07/12 05:33:17;;;;;;;2.27;1.65;;;;;;;12.91;73.64;95965.50;1767475;81;20945;-65
2022/07/12 05:35:44;;;;;;;5.78;1.75;;;;;;;13.07;73.93;95965.16;1767081;81;20989;-65
2022/07/12 05:38:10;;;;;;;2.20;1.40;;;;;;;13.24;73.07;95963.00;1767333;81;21482;-65
2022/07/12 05:40:37;;;;;;;3.58;1.45;;;;;;;13.26;72.40;95963.84;1767299;81;21005;-65
2022/07/12 05:43:04;;;;;;;5.70;1.37;;;;;;;13.19;71.22;95959.58;1766958;81;21043;-65
2022/07/12 05:45:31;;;;;;;1.52;1.40;;;;;;;13.16;71.30;95966.28;1767350;81;21005;-65
2022/07/12 05:47:57;;;;;;;7.22;1.70;;;;;;;13.28;71.63;95963.39;1767502;81;20982;-65
2022/07/12 05:50:24;;;;;;;5.42;1.72;;;;;;;13.45;71.69;95960.78;1767086;81;21017;-65
2022/07/12 05:55:36;;;;;;;7.28;1.60;;;;;;;13.87;71.85;95944.27;1767369;81;21040;-65
2022/07/12 05:58:03;;;;;;;2.47;1.40;;;;;;;14.12;71.46;95947.14;1767379;81;21009;-64
2022/07/12 06:00:32;;;;;;;4.58;1.35;;;;;;;14.31;70.72;95941.32;1767043;81;20992;-65
2022/07/12 06:02:58;;;;;;;3.25;1.17;;;;;;;14.43;70.95;95939.66;1764167;81;21072;-65
2022/07/12 06:05:25;;;;;;;1.95;0.78;;;;;;;14.60;70.56;95940.08;1764212;81;21020;-65
2022/07/12 06:07:52;;;;;;;3.20;0.78;;;;;;;14.78;68.18;95941.33;1763965;81;21119;-65
2022/07/12 06:10:19;;;;;;;1.22;0.75;;;;;;;14.92;67.11;95939.61;1764350;81;21499;-65
2022/07/12 06:12:45;;;;;;;2.15;0.80;;;;;;;15.02;65.42;95938.41;1764391;81;21013;-65
2022/07/12 06:15:12;;;;;;;2.50;0.70;;;;;;;15.15;64.73;95939.77;1764243;81;20985;-65
2022/07/12 06:17:39;;;;;;;3.65;0.78;;;;;;;15.27;62.50;95932.30;1764100;81;21075;-65
2022/07/12 06:20:07;;;;;;;2.30;0.60;;;;;;;15.34;60.27;95934.72;1764378;81;20980;-65
2022/07/12 06:22:34;;;;;;;0.82;0.60;;;;;;;15.48;62.01;95930.30;1763974;81;21013;-65
2022/07/12 06:25:01;;;;;;;2.95;0.70;;;;;;;15.61;60.78;95927.25;1764153;81;21044;-65
2022/07/12 06:27:28;;;;;;;2.00;0.70;;;;;;;15.75;60.87;95926.38;1763846;81;21001;-65
2022/07/12 06:29:54;;;;;;;2.12;0.57;;;;;;;15.88;59.25;95924.16;1764064;81;21029;-65
2022/07/12 06:32:21;;;;;;;1.80;0.50;;;;;;;15.96;58.39;95920.30;1764304;81;21032;-65
2022/07/12 06:34:47;;;;;;;0.40;0.40;;;;;;;16.27;55.96;95917.89;1764190;81;21037;-65
2022/07/12 06:37:14;;;;;;;0.98;0.50;;;;;;;16.27;55.96;95917.89;1763914;81;20982;-64
2022/07/12 06:39:41;;;;;;;1.12;0.53;;;;;;;16.49;56.77;95923.78;1764541;81;21028;-65
2022/07/12 06:42:08;;;;;;;1.72;0.40;;;;;;;16.68;55.85;95928.82;1763754;81;21013;-65
2022/07/12 06:44:35;;;;;;;0.70;0.47;;;;;;;16.64;54.81;95929.88;1764324;81;20968;-65
2022/07/12 06:47:02;;;;;;;1.05;0.50;;;;;;;16.58;54.54;95930.09;1764131;81;21060;-65
2022/07/12 06:49:29;;;;;;;1.00;0.50;;;;;;;16.47;53.98;95924.30;1764118;81;20993;-65
2022/07/12 06:51:56;;;;;;;1.00;0.50;;;;;;;16.47;53.98;95924.30;1729510;81;21009;-65
2022/07/12 06:54:22;;;;;;;0.70;0.50;;;;;;;16.42;54.51;95920.47;1764250;81;21482;-65
2022/07/12 06:56:49;;;;;;;1.12;0.40;;;;;;;16.39;54.76;95923.25;1764084;81;21032;-65
2022/07/12 06:59:16;;;;;;;0.57;0.57;;;;;;;16.27;54.30;95920.55;1764298;81;20998;-65
2022/07/12 07:01:43;;;;;;;6.03;0.42;;;;;;;16.11;55.86;95902.93;1764109;81;21111;-65
2022/07/12 07:04:10;;;;;;;0.72;0.50;;;;;;;16.11;55.86;95902.93;1764175;81;20981;-65
2022/07/12 07:06:36;;;;;;;1.27;0.70;;;;;;;16.21;56.46;95917.66;1764486;81;21009;-64
2022/07/12 07:09:07;;;;;;;2.55;0.60;;;;;;;16.42;56.82;95913.80;1764142;81;21002;-65
2022/07/12 07:11:32;;;;;;;1.25;0.50;;;;;;;16.68;56.05;95911.50;1763752;81;21059;-65
2022/07/12 07:13:58;;;;;;;0.60;0.53;;;;;;;16.83;53.62;95909.65;1764325;81;21052;-65
2022/07/12 07:16:25;;;;;;;1.32;0.50;;;;;;;17.03;53.22;95914.66;1764445;81;21052;-65
2022/07/12 07:18:52;;;;;;;0.65;0.47;;;;;;;17.24;53.11;95912.97;1763832;81;21028;-65
2022/07/12 07:21:18;;;;;;;0.78;0.57;;;;;;;17.45;52.44;95915.23;1764349;81;21008;-65
2022/07/12 07:23:45;;;;;;;1.90;0.60;;;;;;;17.63;51.69;95910.94;1764583;81;21016;-65
2022/07/12 07:26:12;;;;;;;0.65;0.50;;;;;;;17.60;51.54;95908.40;1764636;81;21005;-65
2022/07/12 07:31:24;;;;;;;4.50;0.80;;;;;;;17.88;47.58;95906.81;1764265;81;20988;-65
2022/07/12 07:33:50;;;;;;;0.98;0.40;;;;;;;18.11;49.86;95910.69;1764142;81;21341;-65
2022/07/12 07:36:17;;;;;;;2.17;1.30;;;;;;;18.05;49.21;95910.11;1763911;81;21032;-65
2022/07/12 07:38:44;;;;;;;0.70;0.70;;;;;;;17.97;48.98;95911.77;1763835;81;21097;-65
2022/07/12 07:41:11;;;;;;;0.70;0.60;;;;;;;17.88;49.24;95914.34;1764106;81;21004;-65
2022/07/12 07:43:38;;;;;;;0.90;0.72;;;;;;;17.62;47.55;95926.55;1764130;81;20981;-65
2022/07/12 07:46:04;;;;;;;0.90;0.60;;;;;;;17.72;48.99;95923.91;1763986;81;21029;-65
2022/07/12 07:48:31;;;;;;;0.60;0.50;;;;;;;17.80;48.20;95924.95;1763953;81;21013;-65
2022/07/12 07:50:58;;;;;;;0.30;0.30;;;;;;;17.62;47.76;95925.22;1764489;81;20945;-65
2022/07/12 07:53:25;;;;;;;0.50;0.50;;;;;;;17.53;48.09;95927.78;1764196;81;21449;-65
2022/07/12 07:55:52;;;;;;;1.45;0.37;;;;;;;17.80;47.67;95915.61;1764251;81;21012;-65
2022/07/12 07:58:22;;;;;;;2.80;0.50;;;;;;;18.22;48.26;95907.58;1763958;81;21472;-65
2022/07/12 08:00:52;;;;;;;3.90;0.60;;;;;;;18.59;46.48;95908.12;1764137;81;21503;-65
2022/07/12 08:03:22;;;;;;;2.72;0.65;;;;;;;18.90;46.29;95906.77;1760762;81;21467;-65
2022/07/12 08:05:50;;;;;;;2.15;0.50;;;;;;;19.23;47.54;95905.64;1762727;81;21013;-65
2022/07/12 08:08:18;;;;;;;3.92;0.70;;;;;;;19.49;45.45;95911.55;1762635;81;21036;-65
2022/07/12 08:10:45;;;;;;;1.40;0.57;;;;;;;19.53;44.53;95914.48;1762650;81;21013;-65
2022/07/12 08:13:12;;;;;;;1.90;0.53;;;;;;;19.23;44.86;95915.48;1762423;81;21024;-65
2022/07/12 08:15:39;;;;;;;0.98;0.60;;;;;;;18.90;44.84;95925.94;1762356;81;21113;-65
2022/07/12 08:18:05;;;;;;;0.40;0.40;;;;;;;18.68;46.58;95923.36;1762564;81;20981;-65
2022/07/12 08:20:32;;;;;;;1.42;1.02;;;;;;;18.55;47.27;95932.40;1762509;81;21542;-65
2022/07/12 08:23:01;;;;;;;3.27;0.70;;;;;;;18.71;47.04;95923.22;1762639;81;20973;-65
2022/07/12 08:25:28;;;;;;;1.62;0.82;;;;;;;18.91;45.41;95927.69;1762251;81;21081;-65
2022/07/12 08:27:54;;;;;;;1.00;0.50;;;;;;;18.75;45.44;95927.50;1762465;81;21005;-65
2022/07/12 08:30:21;;;;;;;1.52;0.50;;;;;;;18.71;44.46;95924.08;1762801;81;21025;-65
2022/07/12 08:32:48;;;;;;;1.12;0.70;;;;;;;18.73;46.09;95922.20;1762544;81;21001;-65
2022/07/12 08:35:15;;;;;;;101.55;6.47;;;;;;;18.80;45.84;95924.18;1762458;81;21060;-65
2022/07/12 08:37:43;;;;;;;47.13;2.45;;;;;;;18.77;45.23;95921.17;1762531;81;21004;-65
2022/07/12 08:40:10;;;;;;;8.53;1.27;;;;;;;19.07;45.77;95926.02;1762554;81;20981;-65
2022/07/12 08:42:42;;;;;;;3.15;1.82;;;;;;;19.06;44.96;95921.63;1762423;81;21025;-65
2022/07/12 08:45:10;;;;;;;2.52;1.77;;;;;;;18.93;45.46;95931.16;1762832;81;21012;-65
2022/07/12 08:47:37;;;;;;;1.70;1.10;;;;;;;18.73;45.24;95925.36;1762571;81;21076;-65
2022/07/12 08:50:17;;;;;;;2.95;1.20;;;;;;;18.79;45.31;95923.28;1762385;81;21506;-65
2022/07/12 08:52:51;;;;;;;3.45;0.80;;;;;;;19.08;44.20;95917.08;1762662;81;20950;-65
2022/07/12 08:55:35;;;;;;;3.65;0.62;;;;;;;19.59;43.86;95916.84;1762464;81;21491;-65
2022/07/12 08:58:06;;;;;;;1.10;0.50;;;;;;;20.04;43.66;95909.31;1762338;81;21024;-65
2022/07/12 09:00:33;;;;;;;0.40;0.40;;;;;;;20.26;42.13;95909.94;1762639;81;20989;-65
2022/07/12 09:03:03;;;;;;;1.85;0.60;;;;;;;20.00;42.18;95915.75;1763188;81;21476;-65
2022/07/12 09:05:33;;;;;;;0.85;0.60;;;;;;;19.71;43.28;95917.23;1764158;81;21036;-65
2022/07/12 09:08:08;;;;;;;1.95;0.75;;;;;;;19.34;43.28;95923.85;1764107;81;21021;-65
2022/07/12 09:10:48;;;;;;;0.70;0.50;;;;;;;19.05;43.73;95926.59;1763652;81;20993;-65
2022/07/12 09:13:15;;;;;;;1.92;0.70;;;;;;;18.87;44.94;95936.77;1733596;81;21025;-65
2022/07/12 09:15:42;;;;;;;0.57;0.57;;;;;;;18.76;45.34;95929.25;1764042;81;21025;-65
2022/07/12 09:18:17;;;;;;;3.95;1.70;;;;;;;18.76;45.50;95925.24;1763826;81;21061;-65
2022/07/12 09:20:52;;;;;;;1.00;0.60;;;;;;;18.93;45.45;95926.67;1764230;81;21001;-65
2022/07/12 09:23:19;;;;;;;0.70;0.60;;;;;;;19.09;45.32;95920.61;1764111;81;21004;-65
2022/07/12 09:25:48;;;;;;;2.17;0.80;;;;;;;19.11;45.04;95920.94;1764156;81;21010;-65
2022/07/12 09:28:15;;;;;;;1.07;0.80;;;;;;;19.02;44.66;95924.92;1763978;81;21013;-65
2022/07/12 09:30:52;;;;;;;1.17;0.50;;;;;;;18.94;45.21;95931.08;1764039;81;20965;-65
2022/07/12 09:36:07;;;;;;;0.85;0.75;;;;;;;18.71;44.42;95935.24;1764112;81;21068;-65
2022/07/12 09:38:53;;;;;;;1.62;0.65;;;;;;;18.61;44.70;95942.80;1763732;81;21030;-65
2022/07/12 09:41:21;;;;;;;0.90;0.50;;;;;;;18.57;45.28;95930.50;1764357;81;21017;-65
2022/07/12 09:43:49;;;;;;;0.72;0.60;;;;;;;18.52;45.27;95930.73;1764267;81;21012;-65
2022/07/12 09:46:17;;;;;;;1.22;0.50;;;;;;;18.52;45.62;95938.75;1764114;81;21036;-65
2022/07/12 09:48:46;;;;;;;0.70;0.60;;;;;;;18.45;45.66;95932.41;1763853;81;21021;-65
2022/07/12 09:51:20;;;;;;;0.98;0.60;;;;;;;18.38;45.79;95941.16;1763901;81;20976;-65
2022/07/12 09:53:51;;;;;;;3.35;2.50;;;;;;;18.27;45.57;95940.30;1764260;81;20981;-65
2022/07/12 09:56:21;;;;;;;3.12;1.72;;;;;;;18.21;45.96;95938.34;1764422;81;20993;-65
2022/07/12 09:58:57;;;;;;;3.58;2.40;;;;;;;18.15;46.07;95935.00;1763881;81;20981;-65
2022/07/12 10:01:25;;;;;;;4.53;1.10;;;;;;;18.11;45.89;95942.73;1764357;81;20965;-65
2022/07/12 10:03:53;;;;;;;4.30;2.50;;;;;;;18.11;46.81;95934.72;1766147;81;21088;-65
2022/07/12 10:06:27;;;;;;;0.93;0.70;;;;;;;18.27;46.64;95932.72;1767425;81;21432;-65
2022/07/12 10:08:57;;;;;;;1.42;0.93;;;;;;;18.58;45.96;95926.91;1766561;81;21017;-65
2022/07/12 10:11:25;;;;;;;2.72;1.67;;;;;;;18.65;44.76;95927.04;1766398;81;21064;-65
2022/07/12 10:13:54;;;;;;;2.30;1.10;;;;;;;18.67;44.98;95926.95;1766730;81;21032;-65
2022/07/12 10:16:28;;;;;;;1.82;1.30;;;;;;;18.84;46.28;95921.74;1767122;81;21004;-65
2022/07/12 10:19:29;;;;;;;3.25;1.00;;;;;;;19.30;45.16;95916.91;1767426;81;20977;-65
2022/07/12 10:21:59;;;;;;;4.03;1.05;;;;;;;19.32;44.68;95912.34;1766968;81;21073;-65
2022/07/12 10:24:48;;;;;;;2.08;0.60;;;;;;;19.17;44.45;95918.44;1767257;81;21001;-65
2022/07/12 10:27:21;;;;;;;2.10;0.60;;;;;;;19.34;45.75;95910.95;1767074;81;21013;-65
2022/07/12 10:29:51;;;;;;;2.70;0.70;;;;;;;19.73;43.64;95908.18;1734856;81;21000;-65
2022/07/12 10:32:33;;;;;;;0.70;0.70;;;;;;;20.42;42.34;95894.40;1767422;81;21012;-65
2022/07/12 10:35:13;;;;;;;1.90;0.65;;;;;;;21.10;42.37;95893.85;1767102;81;20996;-67
2022/07/12 10:37:40;;;;;;;0.82;0.55;;;;;;;21.82;39.13;95884.42;1767209;81;21467;-67
2022/07/12 10:40:17;;;;;;;1.37;0.60;;;;;;;21.83;39.51;95879.91;1767208;81;21019;-67
2022/07/12 10:43:07;;;;;;;1.20;0.65;;;;;;;21.68;38.79;95882.15;1767180;81;20990;-66
2022/07/12 10:45:41;;;;;;;1.27;0.60;;;;;;;21.19;37.78;95883.06;1767544;81;21031;-66
2022/07/12 10:48:10;;;;;;;0.70;0.60;;;;;;;20.89;39.26;95892.33;1766139;81;20981;-66
2022/07/12 10:50:49;;;;;;;3.02;1.20;;;;;;;20.58;40.20;95890.45;1767235;81;21008;-66
2022/07/12 10:53:23;;;;;;;0.95;0.70;;;;;;;20.38;40.89;95892.81;1767175;81;21048;-66
2022/07/12 10:56:19;;;;;;;1.20;0.95;;;;;;;20.08;40.41;95896.13;1766875;81;21025;-66
2022/07/12 10:58:57;;;;;;;1.37;0.70;;;;;;;20.16;41.51;95894.39;1767064;81;21008;-66
2022/07/12 11:01:29;;;;;;;5.30;1.40;;;;;;;20.42;41.42;95898.42;1767030;81;21567;-66
2022/07/12 11:04:06;;;;;;;7.15;2.77;;;;;;;20.40;41.05;95894.47;1765166;81;21071;-66
2022/07/12 11:06:39;;;;;;;6.33;1.72;;;;;;;20.26;41.78;95899.22;1760264;81;20989;-67
2022/07/12 11:09:09;;;;;;;2.50;1.10;;;;;;;20.16;42.30;95907.34;1763804;81;21001;-66
2022/07/12 11:11:51;;;;;;;2.15;0.75;;;;;;;19.96;42.66;95908.36;1764319;81;21013;-66
2022/07/12 11:14:34;;;;;;;3.87;0.95;;;;;;;19.87;43.34;95913.69;1764189;81;21522;-66
2022/07/12 11:17:00;;;;;;;;;;;;;;;19.82;44.61;95918.41;1766676;81;21041;-66
2022/07/12 11:19:31;;;;;;;13.55;3.83;;;;;;;19.67;45.29;95917.36;1732542;83;20108;-66
2022/07/12 11:21:58;;;;;;;11.93;3.27;;;;;;;19.76;46.27;95906.68;1729680;81;20993;-66
2022/07/12 11:24:28;;;;;;;6.37;2.02;;;;;;;20.20;46.41;95907.56;1763939;81;21076;-66
2022/07/12 11:26:55;;;;;;;14.00;4.25;;;;;;;20.64;45.63;95906.23;1764362;81;21537;-66
2022/07/12 11:29:23;;;;;;;6.55;2.47;;;;;;;20.58;44.89;95911.91;1764306;81;21020;-66
2022/07/12 11:31:49;;;;;;;4.12;1.82;;;;;;;20.43;45.04;95910.38;1764057;81;21092;-66
2022/07/12 11:34:25;;;;;;;6.25;2.90;;;;;;;20.34;45.16;95906.00;1759307;81;21048;-66
2022/07/12 11:36:54;;;;;;;6.08;3.17;;;;;;;20.18;44.79;95907.25;1764052;81;21033;-66
2022/07/12 11:39:39;;;;;;;2.35;1.20;;;;;;;20.22;44.54;95903.48;1734241;81;21546;-66
2022/07/12 11:42:07;;;;;;;1.45;1.00;;;;;;;20.75;43.15;95906.51;1764169;81;21017;-67
2022/07/12 11:44:49;;;;;;;1.65;0.90;;;;;;;21.45;43.02;95903.61;1764001;81;21016;-66
2022/07/12 11:47:22;;;;;;;4.25;0.80;;;;;;;21.89;42.88;95896.99;1764042;81;21064;-66
2022/07/12 11:49:55;;;;;;;4.10;0.85;;;;;;;22.17;41.89;95882.78;1764478;81;21028;-67
2022/07/12 11:52:24;;;;;;;1.32;1.05;;;;;;;22.23;41.39;95886.98;1764193;81;21491;-66